Time,TemperatureF,DewpointF,PressureIn,WindDirection,WindDirectionDegrees,WindSpeedMPH,WindSpeedGustMPH,Humidity,HourlyPrecipIn,Conditions,Clouds,dailyrainin,SoftwareType,DateUTC
2013-04-09 00:04:00,37.6,36.3,30.04,NE,35,6.0,8.0,95,0.00,,,0.39,meteohub,2013-04-09 05:04:00,
2013-04-09 00:09:00,37.4,36.1,30.04,NNE,30,6.0,8.0,95,0.00,,,0.00,meteohub,2013-04-09 05:09:00,
2013-04-09 00:14:00,37.4,36.1,30.04,NNE,21,9.0,9.0,95,0.00,,,0.00,meteohub,2013-04-09 05:14:00,
2013-04-09 00:20:00,37.2,36.0,30.04,NNE,25,8.0,9.0,95,0.00,,,0.00,meteohub,2013-04-09 05:20:00,
2013-04-09 00:25:00,37.2,36.1,30.04,NNE,20,9.0,10.0,96,0.00,,,0.00,meteohub,2013-04-09 05:25:00,
2013-04-09 00:30:00,37.2,36.1,30.04,NNE,18,7.0,10.0,96,0.00,,,0.00,meteohub,2013-04-09 05:30:00,
2013-04-09 00:35:00,37.2,36.1,30.04,NNE,30,5.0,10.0,96,0.00,,,0.00,meteohub,2013-04-09 05:35:00,
2013-04-09 00:40:00,37.0,36.0,30.04,NNE,26,9.0,12.0,96,0.00,,,0.00,meteohub,2013-04-09 05:40:00,
2013-04-09 00:45:00,37.0,36.0,30.04,NNE,30,4.0,13.0,96,0.00,,,0.00,meteohub,2013-04-09 05:45:00,
2013-04-09 00:51:00,36.9,35.8,30.04,NNE,17,7.0,13.0,96,0.00,,,0.00,meteohub,2013-04-09 05:51:00,
2013-04-09 00:56:00,36.9,35.8,30.05,NE,38,7.0,13.0,96,0.00,,,0.00,meteohub,2013-04-09 05:56:00,
2013-04-09 01:01:00,36.7,35.6,30.05,NE,45,6.0,11.0,96,0.00,,,0.00,meteohub,2013-04-09 06:01:00,
2013-04-09 01:07:00,36.7,35.6,30.05,NE,40,6.0,12.0,96,0.00,,,0.00,meteohub,2013-04-09 06:07:00,
2013-04-09 01:12:00,36.5,35.4,30.05,NE,35,5.0,12.0,96,0.00,,,0.00,meteohub,2013-04-09 06:12:00,
2013-04-09 01:17:00,36.5,35.4,30.06,NE,53,7.0,12.0,96,0.00,,,0.00,meteohub,2013-04-09 06:17:00,
2013-04-09 01:22:00,36.3,35.2,30.06,NE,54,5.0,10.0,96,0.00,,,0.00,meteohub,2013-04-09 06:22:00,
2013-04-09 01:27:00,36.3,35.2,30.07,NE,54,2.0,8.0,96,0.00,,,0.00,meteohub,2013-04-09 06:27:00,
2013-04-09 01:32:00,36.3,35.2,30.07,NE,54,4.0,7.0,96,0.00,,,0.00,meteohub,2013-04-09 06:32:00,
2013-04-09 01:37:00,36.3,35.2,30.07,NE,54,4.0,6.0,96,0.00,,,0.00,meteohub,2013-04-09 06:37:00,
2013-04-09 01:42:00,36.3,35.2,30.06,NE,54,5.0,6.0,96,0.00,,,0.00,meteohub,2013-04-09 06:42:00,
2013-04-09 01:47:00,36.1,35.1,30.06,NE,54,4.0,6.0,96,0.00,,,0.00,meteohub,2013-04-09 06:47:00,
2013-04-09 01:52:00,36.1,35.1,30.06,NE,53,5.0,7.0,96,0.00,,,0.00,meteohub,2013-04-09 06:52:00,
2013-04-09 01:57:00,36.1,35.1,30.05,NE,36,7.0,9.0,96,0.00,,,0.00,meteohub,2013-04-09 06:57:00,
2013-04-09 02:03:00,36.3,35.2,30.05,NE,41,4.0,9.0,96,0.00,,,0.00,meteohub,2013-04-09 07:03:00,
2013-04-09 02:08:00,36.3,35.2,30.05,NE,43,6.0,9.0,96,0.00,,,0.00,meteohub,2013-04-09 07:08:00,
2013-04-09 02:13:00,36.3,35.2,30.04,NE,34,5.0,8.0,96,0.00,,,0.00,meteohub,2013-04-09 07:13:00,
2013-04-09 02:19:00,36.1,35.1,30.04,NE,39,7.0,8.0,96,0.00,,,0.00,meteohub,2013-04-09 07:19:00,
2013-04-09 02:24:00,36.1,35.1,30.04,NNE,29,7.0,9.0,96,0.00,,,0.00,meteohub,2013-04-09 07:24:00,
2013-04-09 02:30:00,36.1,35.1,30.04,NNE,30,5.0,10.0,96,0.00,,,0.00,meteohub,2013-04-09 07:30:00,
2013-04-09 02:35:00,36.1,35.1,30.03,NNE,20,6.0,11.0,96,0.00,,,0.00,meteohub,2013-04-09 07:35:00,
2013-04-09 02:40:00,36.1,35.1,30.02,NNE,29,10.0,11.0,96,0.00,,,0.00,meteohub,2013-04-09 07:40:00,
2013-04-09 02:45:00,36.1,35.1,30.03,NE,35,11.0,11.0,96,0.00,,,0.00,meteohub,2013-04-09 07:45:00,
2013-04-09 02:51:00,36.1,35.4,30.03,NNE,24,8.0,12.0,97,0.00,,,0.00,meteohub,2013-04-09 07:51:00,
2013-04-09 02:56:00,36.1,35.1,30.03,NE,34,8.0,12.0,96,0.00,,,0.00,meteohub,2013-04-09 07:56:00,
2013-04-09 03:02:00,36.1,35.1,30.03,NNE,19,6.0,12.0,96,0.00,,,0.00,meteohub,2013-04-09 08:02:00,
2013-04-09 03:07:00,36.1,35.1,30.04,NE,40,8.0,10.0,96,0.00,,,0.00,meteohub,2013-04-09 08:07:00,
2013-04-09 03:12:00,36.1,35.1,30.05,NE,38,5.0,9.0,96,0.00,,,0.00,meteohub,2013-04-09 08:12:00,
2013-04-09 03:18:00,36.1,35.4,30.05,NE,48,5.0,9.0,97,0.00,,,0.00,meteohub,2013-04-09 08:18:00,
2013-04-09 03:23:00,36.1,35.4,30.05,ENE,77,5.0,9.0,97,0.00,,,0.00,meteohub,2013-04-09 08:23:00,
2013-04-09 03:28:00,36.1,35.4,30.05,ENE,70,4.0,9.0,97,0.00,,,0.00,meteohub,2013-04-09 08:28:00,
2013-04-09 03:33:00,36.1,35.4,30.04,ENE,69,10.0,10.0,97,0.00,,,0.00,meteohub,2013-04-09 08:33:00,
2013-04-09 03:38:00,36.0,35.2,30.04,ENE,62,7.0,12.0,97,0.00,,,0.00,meteohub,2013-04-09 08:38:00,
2013-04-09 03:43:00,36.1,35.4,30.05,ENE,61,5.0,12.0,97,0.00,,,0.00,meteohub,2013-04-09 08:43:00,
2013-04-09 03:49:00,36.0,35.2,30.05,East,85,5.0,12.0,97,0.00,,,0.00,meteohub,2013-04-09 08:49:00,
2013-04-09 03:54:00,36.0,35.2,30.05,ENE,61,7.0,11.0,97,0.00,,,0.00,meteohub,2013-04-09 08:54:00,
2013-04-09 04:00:00,36.0,35.2,30.06,ENE,67,7.0,9.0,97,0.00,,,0.00,meteohub,2013-04-09 09:00:00,
2013-04-09 04:05:00,35.8,35.1,30.05,ENE,69,8.0,9.0,97,0.00,,,0.00,meteohub,2013-04-09 09:05:00,
2013-04-09 04:10:00,35.8,35.1,30.05,ENE,68,5.0,8.0,97,0.00,,,0.00,meteohub,2013-04-09 09:10:00,
2013-04-09 04:15:00,35.8,35.1,30.05,ENE,72,4.0,9.0,97,0.00,,,0.00,meteohub,2013-04-09 09:15:00,
2013-04-09 04:20:00,35.8,35.1,30.05,ENE,76,4.0,9.0,97,0.00,,,0.00,meteohub,2013-04-09 09:20:00,
2013-04-09 04:25:00,35.8,35.1,30.06,East,80,6.0,9.0,97,0.00,,,0.00,meteohub,2013-04-09 09:25:00,
2013-04-09 04:30:00,35.8,35.1,30.05,East,79,5.0,9.0,97,0.00,,,0.00,meteohub,2013-04-09 09:30:00,
2013-04-09 04:36:00,35.8,35.1,30.05,ENE,78,7.0,9.0,97,0.00,,,0.00,meteohub,2013-04-09 09:36:00,
2013-04-09 04:41:00,35.8,35.1,30.04,ENE,78,5.0,9.0,97,0.00,,,0.00,meteohub,2013-04-09 09:41:00,
2013-04-09 04:46:00,35.8,35.1,30.04,ENE,77,8.0,9.0,97,0.00,,,0.00,meteohub,2013-04-09 09:46:00,
2013-04-09 04:51:00,35.8,35.1,30.04,ENE,68,4.0,9.0,97,0.00,,,0.00,meteohub,2013-04-09 09:51:00,
2013-04-09 04:57:00,35.8,35.1,30.04,ENE,67,5.0,9.0,97,0.00,,,0.00,meteohub,2013-04-09 09:57:00,
2013-04-09 05:02:00,35.8,35.1,30.04,ENE,67,5.0,9.0,97,0.00,,,0.00,meteohub,2013-04-09 10:02:00,
2013-04-09 05:07:00,36.0,35.2,30.04,ENE,67,3.0,9.0,97,0.00,,,0.00,meteohub,2013-04-09 10:07:00,
2013-04-09 05:12:00,36.0,35.2,30.04,ENE,65,5.0,8.0,97,0.00,,,0.00,meteohub,2013-04-09 10:12:00,
2013-04-09 05:17:00,36.0,35.2,30.05,ENE,74,5.0,9.0,97,0.00,,,0.00,meteohub,2013-04-09 10:17:00,
2013-04-09 05:22:00,36.0,35.2,30.04,ENE,57,8.0,9.0,97,0.00,,,0.00,meteohub,2013-04-09 10:22:00,
2013-04-09 05:27:00,36.0,35.2,30.04,ENE,57,8.0,10.0,97,0.00,,,0.00,meteohub,2013-04-09 10:27:00,
2013-04-09 05:32:00,36.0,35.2,30.04,NE,55,10.0,10.0,97,0.00,,,0.00,meteohub,2013-04-09 10:32:00,
2013-04-09 05:38:00,36.1,35.4,30.04,ENE,60,9.0,11.0,97,0.00,,,0.00,meteohub,2013-04-09 10:38:00,
2013-04-09 05:43:00,36.1,35.4,30.05,ENE,57,7.0,11.0,97,0.00,,,0.00,meteohub,2013-04-09 10:43:00,
2013-04-09 05:48:00,36.1,35.4,30.04,ENE,65,5.0,11.0,97,0.00,,,0.00,meteohub,2013-04-09 10:48:00,
2013-04-09 05:54:00,36.1,35.4,30.05,ENE,61,8.0,11.0,97,0.00,,,0.00,meteohub,2013-04-09 10:54:00,
2013-04-09 05:59:00,36.1,35.4,30.05,ENE,58,7.0,10.0,97,0.00,,,0.00,meteohub,2013-04-09 10:59:00,
2013-04-09 06:04:00,36.1,35.4,30.05,ENE,58,4.0,10.0,97,0.00,,,0.00,meteohub,2013-04-09 11:04:00,
2013-04-09 06:09:00,36.1,35.4,30.04,NE,51,10.0,10.0,97,0.00,,,0.00,meteohub,2013-04-09 11:09:00,
2013-04-09 06:15:00,36.1,35.4,30.03,ENE,69,9.0,11.0,97,0.00,,,0.00,meteohub,2013-04-09 11:15:00,
2013-04-09 06:20:00,36.1,35.4,30.03,NE,56,6.0,12.0,97,0.00,,,0.00,meteohub,2013-04-09 11:20:00,
2013-04-09 06:25:00,36.0,35.2,30.03,NE,51,6.0,12.0,97,0.00,,,0.00,meteohub,2013-04-09 11:25:00,
2013-04-09 06:31:00,36.1,35.4,30.03,NE,35,7.0,12.0,97,0.00,,,0.00,meteohub,2013-04-09 11:31:00,
2013-04-09 06:36:00,36.1,35.4,30.02,NE,37,8.0,12.0,97,0.00,,,0.00,meteohub,2013-04-09 11:36:00,
2013-04-09 06:41:00,36.0,35.2,30.02,NNE,31,7.0,11.0,97,0.00,,,0.00,meteohub,2013-04-09 11:41:00,
2013-04-09 06:46:00,36.1,35.4,30.01,NNE,30,8.0,12.0,97,0.00,,,0.00,meteohub,2013-04-09 11:46:00,
2013-04-09 06:52:00,36.0,35.2,30.02,NNE,32,6.0,12.0,97,0.00,,,0.00,meteohub,2013-04-09 11:52:00,
2013-04-09 06:57:00,35.8,35.1,30.03,NE,46,8.0,12.0,97,0.00,,,0.00,meteohub,2013-04-09 11:57:00,
2013-04-09 07:02:00,35.6,34.9,30.03,NNE,26,8.0,12.0,97,0.00,,,0.00,meteohub,2013-04-09 12:02:00,
2013-04-09 07:07:00,35.4,34.7,30.02,NNE,28,10.0,12.0,97,0.00,,,0.00,meteohub,2013-04-09 12:07:00,
2013-04-09 07:12:00,35.4,34.7,30.02,NNE,32,8.0,12.0,97,0.00,,,0.00,meteohub,2013-04-09 12:12:00,
2013-04-09 07:17:00,35.2,34.5,30.02,NNE,30,9.0,13.0,97,0.00,,,0.00,meteohub,2013-04-09 12:17:00,
2013-04-09 07:22:00,35.2,34.5,30.03,NE,38,7.0,13.0,97,0.00,,,0.00,meteohub,2013-04-09 12:22:00,
2013-04-09 07:27:00,35.2,34.5,30.03,NE,40,12.0,13.0,97,0.00,,,0.00,meteohub,2013-04-09 12:27:00,
2013-04-09 07:32:00,35.1,34.3,30.03,NE,41,11.0,14.0,97,0.00,,,0.00,meteohub,2013-04-09 12:32:00,
2013-04-09 07:37:00,35.1,34.3,30.04,NE,54,6.0,14.0,97,0.00,,,0.00,meteohub,2013-04-09 12:37:00,
2013-04-09 07:42:00,35.1,34.3,30.05,NE,48,5.0,14.0,97,0.00,,,0.00,meteohub,2013-04-09 12:42:00,
2013-04-09 07:47:00,34.9,34.2,30.05,NNE,30,5.0,12.0,97,0.00,,,0.00,meteohub,2013-04-09 12:47:00,
2013-04-09 07:53:00,34.7,34.0,30.06,NE,39,6.0,11.0,97,0.00,,,0.00,meteohub,2013-04-09 12:53:00,
2013-04-09 07:58:00,34.5,33.8,30.06,NNE,30,7.0,11.0,97,0.00,,,0.00,meteohub,2013-04-09 12:58:00,
2013-04-09 08:03:00,34.5,33.8,30.05,NE,42,6.0,10.0,97,0.00,,,0.00,meteohub,2013-04-09 13:03:00,
2013-04-09 08:08:00,34.5,33.8,30.06,ENE,59,4.0,10.0,97,0.01,,,0.01,meteohub,2013-04-09 13:08:00,
2013-04-09 08:14:00,34.5,33.8,30.06,ENE,61,8.0,10.0,97,0.01,,,0.01,meteohub,2013-04-09 13:14:00,
2013-04-09 08:19:00,34.5,33.8,30.04,ENE,71,7.0,10.0,97,0.03,,,0.03,meteohub,2013-04-09 13:19:00,
2013-04-09 08:25:00,34.5,33.8,30.04,NNE,31,6.0,10.0,97,0.04,,,0.03,meteohub,2013-04-09 13:25:00,
2013-04-09 08:30:00,34.5,33.8,30.04,NE,44,7.0,11.0,97,0.05,,,0.07,meteohub,2013-04-09 13:30:00,
2013-04-09 08:35:00,34.5,33.8,30.04,NE,48,3.0,11.0,97,0.08,,,0.08,meteohub,2013-04-09 13:35:00,
2013-04-09 08:40:00,34.5,33.8,30.04,NE,40,7.0,9.0,97,0.10,,,0.10,meteohub,2013-04-09 13:40:00,
2013-04-09 08:45:00,34.7,34.0,30.02,NE,49,7.0,12.0,97,0.13,,,0.13,meteohub,2013-04-09 13:45:00,
2013-04-09 08:50:00,34.7,34.0,30.03,NE,38,6.0,12.0,97,0.14,,,0.14,meteohub,2013-04-09 13:50:00,
2013-04-09 08:56:00,34.9,34.2,30.04,NNE,13,5.0,12.0,97,0.16,,,0.16,meteohub,2013-04-09 13:56:00,
2013-04-09 09:01:00,34.9,34.2,30.06,NNW,346,7.0,12.0,97,0.18,,,0.18,meteohub,2013-04-09 14:01:00,
2013-04-09 09:07:00,34.7,34.0,30.06,North,9,8.0,10.0,97,0.17,,,0.18,meteohub,2013-04-09 14:07:00,
2013-04-09 09:12:00,34.5,33.8,30.06,NNE,28,7.0,10.0,97,0.17,,,0.19,meteohub,2013-04-09 14:12:00,
2013-04-09 09:17:00,34.5,33.8,30.04,NE,46,6.0,11.0,97,0.18,,,0.21,meteohub,2013-04-09 14:17:00,
2013-04-09 09:22:00,34.5,33.8,30.00,NE,54,11.0,11.0,97,0.19,,,0.23,meteohub,2013-04-09 14:22:00,
2013-04-09 09:27:00,34.5,33.8,30.00,NE,44,11.0,14.0,97,0.19,,,0.25,meteohub,2013-04-09 14:27:00,
2013-04-09 09:32:00,34.5,33.8,29.98,NE,46,15.0,17.0,97,0.20,,,0.27,meteohub,2013-04-09 14:32:00,
2013-04-09 09:37:00,34.7,34.0,29.99,NNE,29,10.0,17.0,97,0.19,,,0.28,meteohub,2013-04-09 14:37:00,
2013-04-09 09:42:00,35.1,34.3,29.99,NNE,33,8.0,17.0,97,0.18,,,0.29,meteohub,2013-04-09 14:42:00,
2013-04-09 09:48:00,35.2,34.5,29.97,NE,40,13.0,17.0,97,0.16,,,0.29,meteohub,2013-04-09 14:48:00,
2013-04-09 09:53:00,35.8,35.1,29.97,ENE,57,14.0,15.0,97,0.14,,,0.29,meteohub,2013-04-09 14:53:00,
2013-04-09 09:58:00,36.0,35.2,29.96,ENE,66,13.0,16.0,97,0.13,,,0.30,meteohub,2013-04-09 14:58:00,
2013-04-09 10:04:00,36.1,35.4,29.97,ENE,64,11.0,16.0,97,0.13,,,0.31,meteohub,2013-04-09 15:04:00,
2013-04-09 10:09:00,36.5,35.8,29.98,ENE,57,9.0,18.0,97,0.12,,,0.31,meteohub,2013-04-09 15:09:00,
2013-04-09 10:14:00,36.7,36.0,29.98,NE,44,7.0,18.0,97,0.11,,,0.31,meteohub,2013-04-09 15:14:00,
2013-04-09 10:20:00,36.9,36.1,29.98,NE,52,8.0,18.0,97,0.10,,,0.31,meteohub,2013-04-09 15:20:00,
2013-04-09 10:25:00,37.0,36.3,29.99,NE,46,6.0,12.0,97,0.05,,,0.31,meteohub,2013-04-09 15:25:00,
2013-04-09 10:30:00,37.2,36.5,29.99,NE,46,5.0,12.0,97,0.04,,,0.31,meteohub,2013-04-09 15:30:00,
2013-04-09 10:35:00,37.6,36.9,29.98,NNE,32,11.0,11.0,97,0.02,,,0.31,meteohub,2013-04-09 15:35:00,
2013-04-09 10:40:00,37.6,36.9,29.98,NE,43,7.0,11.0,97,0.02,,,0.31,meteohub,2013-04-09 15:40:00,
2013-04-09 10:46:00,37.6,36.9,29.98,NE,37,9.0,13.0,97,0.02,,,0.31,meteohub,2013-04-09 15:46:00,
2013-04-09 10:51:00,37.9,37.2,29.98,NE,43,8.0,13.0,97,0.01,,,0.31,meteohub,2013-04-09 15:51:00,
2013-04-09 10:57:00,37.8,37.0,29.97,NE,36,11.0,13.0,97,0.00,,,0.31,meteohub,2013-04-09 15:57:00,
2013-04-09 11:02:00,37.9,37.2,29.97,NE,37,13.0,14.0,97,0.00,,,0.31,meteohub,2013-04-09 16:02:00,
2013-04-09 11:07:00,37.8,37.0,29.97,NNE,24,7.0,14.0,97,0.01,,,0.32,meteohub,2013-04-09 16:07:00,
2013-04-09 11:13:00,37.6,36.9,29.96,NNE,30,10.0,15.0,97,0.01,,,0.32,meteohub,2013-04-09 16:13:00,
2013-04-09 11:18:00,37.8,37.0,29.97,NE,34,7.0,15.0,97,0.01,,,0.32,meteohub,2013-04-09 16:18:00,
2013-04-09 11:23:00,37.8,37.0,29.96,NNE,32,14.0,15.0,97,0.01,,,0.32,meteohub,2013-04-09 16:23:00,
2013-04-09 11:29:00,37.9,37.2,29.96,NNE,33,12.0,17.0,97,0.01,,,0.32,meteohub,2013-04-09 16:29:00,
2013-04-09 11:34:00,37.8,37.0,29.97,NNE,31,11.0,17.0,97,0.01,,,0.32,meteohub,2013-04-09 16:34:00,
2013-04-09 11:39:00,37.8,37.0,29.98,NE,40,9.0,17.0,97,0.01,,,0.32,meteohub,2013-04-09 16:39:00,
2013-04-09 11:44:00,37.8,37.0,29.97,NE,37,8.0,16.0,97,0.01,,,0.32,meteohub,2013-04-09 16:44:00,
2013-04-09 11:50:00,37.9,37.2,29.96,NE,35,7.0,12.0,97,0.01,,,0.33,meteohub,2013-04-09 16:50:00,
2013-04-09 11:55:00,37.9,37.2,29.97,NNE,24,10.0,12.0,97,0.02,,,0.33,meteohub,2013-04-09 16:55:00,
2013-04-09 12:00:00,38.1,37.4,29.96,NNE,30,11.0,14.0,97,0.02,,,0.33,meteohub,2013-04-09 17:00:00,
2013-04-09 12:06:00,38.1,37.4,29.95,NE,41,11.0,15.0,97,0.01,,,0.33,meteohub,2013-04-09 17:06:00,
2013-04-09 12:11:00,38.1,37.4,29.95,NNE,24,12.0,15.0,97,0.01,,,0.33,meteohub,2013-04-09 17:11:00,
2013-04-09 12:17:00,38.3,37.6,29.94,NE,39,7.0,15.0,97,0.02,,,0.34,meteohub,2013-04-09 17:17:00,
2013-04-09 12:22:00,38.7,37.9,29.94,NE,40,9.0,16.0,97,0.02,,,0.34,meteohub,2013-04-09 17:22:00,
2013-04-09 12:27:00,38.7,37.9,29.94,NE,50,12.0,16.0,97,0.03,,,0.35,meteohub,2013-04-09 17:27:00,
2013-04-09 12:32:00,38.5,37.8,29.94,NNE,27,11.0,16.0,97,0.03,,,0.35,meteohub,2013-04-09 17:32:00,
2013-04-09 12:37:00,38.5,37.8,29.94,NE,34,16.0,16.0,97,0.03,,,0.35,meteohub,2013-04-09 17:37:00,
2013-04-09 12:42:00,38.5,37.8,29.94,NE,46,11.0,16.0,97,0.03,,,0.35,meteohub,2013-04-09 17:42:00,
2013-04-09 12:47:00,38.5,37.8,29.94,NE,35,10.0,16.0,97,0.02,,,0.35,meteohub,2013-04-09 17:47:00,
2013-04-09 12:52:00,38.7,37.9,29.96,NE,45,14.0,16.0,97,0.02,,,0.35,meteohub,2013-04-09 17:52:00,
2013-04-09 12:58:00,38.7,37.9,29.95,NE,45,14.0,17.0,97,0.03,,,0.36,meteohub,2013-04-09 17:58:00,
2013-04-09 13:03:00,38.7,37.9,29.95,NNE,31,14.0,17.0,97,0.03,,,0.36,meteohub,2013-04-09 18:03:00,
2013-04-09 13:08:00,38.7,37.9,29.96,NNE,16,8.0,17.0,97,0.04,,,0.37,meteohub,2013-04-09 18:08:00,
2013-04-09 13:14:00,38.5,37.8,29.97,North,5,12.0,17.0,97,0.05,,,0.38,meteohub,2013-04-09 18:14:00,
2013-04-09 13:19:00,38.1,37.4,29.97,North,355,16.0,17.0,97,0.05,,,0.39,meteohub,2013-04-09 18:19:00,
2013-04-09 13:25:00,37.9,37.2,30.00,North,355,10.0,18.0,97,0.07,,,0.41,meteohub,2013-04-09 18:25:00,
2013-04-09 13:30:00,37.9,37.2,30.01,NNW,344,13.0,19.0,97,0.10,,,0.45,meteohub,2013-04-09 18:30:00,
2013-04-09 13:35:00,37.9,37.2,30.07,NW,314,4.0,19.0,97,0.13,,,0.48,meteohub,2013-04-09 18:35:00,
2013-04-09 13:41:00,37.6,36.9,30.06,NNW,331,12.0,18.0,97,0.18,,,0.53,meteohub,2013-04-09 18:41:00,
2013-04-09 13:46:00,36.9,35.8,30.04,NNE,22,10.0,16.0,96,0.22,,,0.57,meteohub,2013-04-09 18:46:00,
2013-04-09 13:51:00,36.3,35.2,30.01,North,11,12.0,17.0,96,0.26,,,0.61,meteohub,2013-04-09 18:51:00,
2013-04-09 13:56:00,36.1,35.1,29.97,NNE,30,12.0,20.0,96,0.28,,,0.64,meteohub,2013-04-09 18:56:00,
2013-04-09 14:02:00,36.1,35.4,29.96,NNE,26,11.0,22.0,97,0.29,,,0.66,meteohub,2013-04-09 19:02:00,
2013-04-09 14:07:00,36.1,35.4,29.97,NNE,13,13.0,22.0,97,0.33,,,0.70,meteohub,2013-04-09 19:07:00,
2013-04-09 14:12:00,36.1,35.4,29.94,NE,34,14.0,22.0,97,0.33,,,0.71,meteohub,2013-04-09 19:12:00,
2013-04-09 14:17:00,36.0,35.2,29.94,NE,43,14.0,25.0,97,0.32,,,0.71,meteohub,2013-04-09 19:17:00,
2013-04-09 14:23:00,36.1,35.4,29.98,North,9,16.0,25.0,97,0.29,,,0.71,meteohub,2013-04-09 19:23:00,
2013-04-09 14:28:00,36.1,35.4,29.98,NNE,20,9.0,22.0,97,0.28,,,0.71,meteohub,2013-04-09 19:28:00,
2013-04-09 14:33:00,36.3,35.6,29.99,NNE,15,12.0,22.0,97,0.25,,,0.71,meteohub,2013-04-09 19:33:00,
2013-04-09 14:38:00,36.5,35.8,29.99,North,5,16.0,21.0,97,0.22,,,0.71,meteohub,2013-04-09 19:38:00,
2013-04-09 14:44:00,36.7,36.0,30.00,NNE,20,9.0,18.0,97,0.16,,,0.71,meteohub,2013-04-09 19:44:00,
2013-04-09 14:49:00,36.5,35.8,30.00,NNE,23,9.0,18.0,97,0.12,,,0.71,meteohub,2013-04-09 19:49:00,
2013-04-09 14:54:00,36.3,35.6,29.99,NNE,13,12.0,18.0,97,0.10,,,0.71,meteohub,2013-04-09 19:54:00,
2013-04-09 15:00:00,36.5,35.8,29.97,NNE,17,11.0,18.0,97,0.06,,,0.71,meteohub,2013-04-09 20:00:00,
2013-04-09 15:05:00,36.7,36.0,29.98,NE,36,17.0,18.0,97,0.02,,,0.72,meteohub,2013-04-09 20:05:00,
2013-04-09 15:10:00,36.9,36.1,29.99,NE,38,18.0,19.0,97,0.02,,,0.73,meteohub,2013-04-09 20:10:00,
2013-04-09 15:15:00,36.9,36.1,29.99,NNE,19,14.0,19.0,97,0.02,,,0.73,meteohub,2013-04-09 20:15:00,
2013-04-09 15:21:00,37.0,36.3,29.99,NNE,30,12.0,20.0,97,0.02,,,0.73,meteohub,2013-04-09 20:21:00,
2013-04-09 15:26:00,37.0,36.3,30.01,NNE,24,12.0,20.0,97,0.02,,,0.73,meteohub,2013-04-09 20:26:00,
2013-04-09 15:31:00,37.0,36.3,30.00,NNE,30,13.0,20.0,97,0.02,,,0.73,meteohub,2013-04-09 20:31:00,
2013-04-09 15:37:00,37.2,36.5,30.00,NNE,14,18.0,20.0,97,0.02,,,0.73,meteohub,2013-04-09 20:37:00,
2013-04-09 15:42:00,37.2,36.1,30.00,NNE,15,13.0,21.0,96,0.03,,,0.74,meteohub,2013-04-09 20:42:00,
2013-04-09 15:47:00,37.2,36.1,30.01,NNE,27,8.0,21.0,96,0.03,,,0.74,meteohub,2013-04-09 20:47:00,
2013-04-09 15:52:00,37.6,36.5,30.01,NNE,27,15.0,21.0,96,0.03,,,0.74,meteohub,2013-04-09 20:52:00,
2013-04-09 15:57:00,37.6,36.5,30.01,NNE,23,13.0,19.0,96,0.03,,,0.74,meteohub,2013-04-09 20:57:00,
2013-04-09 16:02:00,37.6,36.5,30.01,NE,38,13.0,19.0,96,0.02,,,0.74,meteohub,2013-04-09 21:02:00,
2013-04-09 16:07:00,37.6,36.5,30.01,North,10,12.0,19.0,96,0.01,,,0.74,meteohub,2013-04-09 21:07:00,
2013-04-09 16:13:00,37.6,36.5,30.02,NE,34,11.0,19.0,96,0.01,,,0.74,meteohub,2013-04-09 21:13:00,
2013-04-09 16:18:00,37.6,36.5,30.01,NNE,28,9.0,19.0,96,0.01,,,0.74,meteohub,2013-04-09 21:18:00,
2013-04-09 16:23:00,37.6,36.5,30.01,NNE,20,9.0,16.0,96,0.01,,,0.74,meteohub,2013-04-09 21:23:00,
2013-04-09 16:28:00,37.8,36.7,30.02,NNE,29,11.0,16.0,96,0.01,,,0.74,meteohub,2013-04-09 21:28:00,
2013-04-09 16:34:00,37.8,36.7,30.02,NNE,26,11.0,21.0,96,0.01,,,0.74,meteohub,2013-04-09 21:34:00,
2013-04-09 16:39:00,37.8,36.7,30.01,North,5,13.0,21.0,96,0.01,,,0.74,meteohub,2013-04-09 21:39:00,
2013-04-09 16:44:00,37.8,36.7,30.01,NNE,31,12.0,21.0,96,0.00,,,0.74,meteohub,2013-04-09 21:44:00,
2013-04-09 16:50:00,37.8,36.7,30.01,NNE,24,14.0,19.0,96,0.00,,,0.74,meteohub,2013-04-09 21:50:00,
2013-04-09 16:55:00,37.8,36.7,30.01,NNE,25,16.0,23.0,96,0.00,,,0.74,meteohub,2013-04-09 21:55:00,
2013-04-09 17:00:00,37.8,36.5,30.01,NE,34,13.0,23.0,95,0.00,,,0.74,meteohub,2013-04-09 22:00:00,
2013-04-09 17:05:00,37.8,36.5,30.01,NNE,17,11.0,24.0,95,0.00,,,0.74,meteohub,2013-04-09 22:05:00,
2013-04-09 17:11:00,37.8,36.5,30.00,NE,34,20.0,24.0,95,0.00,,,0.74,meteohub,2013-04-09 22:11:00,
2013-04-09 17:16:00,37.9,36.7,30.01,NE,38,11.0,21.0,95,0.00,,,0.74,meteohub,2013-04-09 22:16:00,
2013-04-09 17:22:00,37.9,36.7,30.02,NNE,22,14.0,21.0,95,0.00,,,0.74,meteohub,2013-04-09 22:22:00,
2013-04-09 17:27:00,37.9,36.7,30.02,NE,34,11.0,21.0,95,0.00,,,0.74,meteohub,2013-04-09 22:27:00,
2013-04-09 17:32:00,37.9,36.7,30.02,NE,38,10.0,18.0,95,0.00,,,0.74,meteohub,2013-04-09 22:32:00,
2013-04-09 17:37:00,37.9,36.7,30.01,NE,43,11.0,18.0,95,0.00,,,0.74,meteohub,2013-04-09 22:37:00,
2013-04-09 17:42:00,38.1,36.9,30.02,NE,42,11.0,17.0,95,0.00,,,0.74,meteohub,2013-04-09 22:42:00,
2013-04-09 17:47:00,38.1,36.9,30.03,NE,34,9.0,18.0,95,0.00,,,0.74,meteohub,2013-04-09 22:47:00,
2013-04-09 17:52:00,38.1,36.9,30.03,NNE,31,10.0,18.0,95,0.00,,,0.74,meteohub,2013-04-09 22:52:00,
2013-04-09 17:57:00,38.1,36.9,30.04,NE,34,11.0,18.0,95,0.00,,,0.74,meteohub,2013-04-09 22:57:00,
2013-04-09 18:02:00,38.1,36.9,30.04,NNE,25,8.0,17.0,95,0.00,,,0.74,meteohub,2013-04-09 23:02:00,
2013-04-09 18:07:00,38.1,36.9,30.03,North,5,12.0,18.0,95,0.00,,,0.74,meteohub,2013-04-09 23:07:00,
2013-04-09 18:12:00,38.1,36.9,30.04,NNE,22,15.0,18.0,95,0.00,,,0.74,meteohub,2013-04-09 23:12:00,
2013-04-09 18:17:00,37.9,36.7,30.04,NE,49,15.0,19.0,95,0.00,,,0.74,meteohub,2013-04-09 23:17:00,
2013-04-09 18:22:00,37.9,36.7,30.04,NNE,29,10.0,19.0,95,0.00,,,0.74,meteohub,2013-04-09 23:22:00,
2013-04-09 18:27:00,37.9,36.7,30.04,NNE,30,11.0,19.0,95,0.00,,,0.74,meteohub,2013-04-09 23:27:00,
2013-04-09 18:32:00,37.8,36.5,30.04,NE,35,14.0,21.0,95,0.00,,,0.74,meteohub,2013-04-09 23:32:00,
2013-04-09 18:37:00,37.8,36.1,30.04,NNE,26,16.0,21.0,94,0.00,,,0.74,meteohub,2013-04-09 23:37:00,
2013-04-09 18:42:00,37.8,36.1,30.04,NNE,19,11.0,20.0,94,0.00,,,0.74,meteohub,2013-04-09 23:42:00,
2013-04-09 18:47:00,37.6,36.0,30.05,North,5,13.0,19.0,94,0.00,,,0.74,meteohub,2013-04-09 23:47:00,
2013-04-09 18:53:00,37.6,36.0,30.05,NE,38,18.0,19.0,94,0.00,,,0.74,meteohub,2013-04-09 23:53:00,
2013-04-09 18:58:00,37.6,36.0,30.05,NE,38,13.0,19.0,94,0.00,,,0.74,meteohub,2013-04-09 23:58:00,
2013-04-09 19:03:00,37.6,36.0,30.05,NNE,30,13.0,19.0,94,0.00,,,0.74,meteohub,2013-04-10 00:03:00,
2013-04-09 19:09:00,37.4,35.8,30.05,NNE,26,10.0,20.0,94,0.00,,,0.74,meteohub,2013-04-10 00:09:00,
2013-04-09 19:14:00,37.4,35.8,30.05,NNE,32,13.0,20.0,94,0.00,,,0.74,meteohub,2013-04-10 00:14:00,
2013-04-09 19:19:00,37.2,35.6,30.05,NNE,26,12.0,20.0,94,0.00,,,0.74,meteohub,2013-04-10 00:19:00,
2013-04-09 19:24:00,37.2,35.6,30.05,North,5,12.0,19.0,94,0.00,,,0.74,meteohub,2013-04-10 00:24:00,
2013-04-09 19:30:00,37.2,35.6,30.05,North,5,11.0,19.0,94,0.00,,,0.74,meteohub,2013-04-10 00:30:00,
2013-04-09 19:35:00,37.2,35.4,30.06,NNE,23,15.0,18.0,93,0.00,,,0.74,meteohub,2013-04-10 00:35:00,
2013-04-09 19:40:00,37.2,35.4,30.06,NE,36,15.0,20.0,93,0.00,,,0.74,meteohub,2013-04-10 00:40:00,
2013-04-09 19:46:00,37.2,35.4,30.06,NE,36,11.0,20.0,93,0.00,,,0.74,meteohub,2013-04-10 00:46:00,
2013-04-09 19:51:00,37.2,35.4,30.07,NE,34,15.0,18.0,93,0.00,,,0.74,meteohub,2013-04-10 00:51:00,
2013-04-09 19:56:00,37.2,35.4,30.07,NNE,24,18.0,18.0,93,0.00,,,0.74,meteohub,2013-04-10 00:56:00,
2013-04-09 20:02:00,37.2,35.4,30.07,NNE,30,10.0,20.0,93,0.00,,,0.74,meteohub,2013-04-10 01:02:00,
2013-04-09 20:07:00,37.0,35.2,30.07,NNE,22,14.0,20.0,93,0.00,,,0.74,meteohub,2013-04-10 01:07:00,
2013-04-09 20:12:00,37.0,35.2,30.08,NE,34,12.0,20.0,93,0.00,,,0.74,meteohub,2013-04-10 01:12:00,
2013-04-09 20:18:00,37.0,35.2,30.09,NNE,20,7.0,16.0,93,0.00,,,0.74,meteohub,2013-04-10 01:18:00,
2013-04-09 20:23:00,37.0,35.2,30.07,NE,44,8.0,15.0,93,0.00,,,0.74,meteohub,2013-04-10 01:23:00,
2013-04-09 20:28:00,36.9,35.1,30.08,NE,35,11.0,14.0,93,0.00,,,0.74,meteohub,2013-04-10 01:28:00,
2013-04-09 20:33:00,36.9,35.1,30.08,NNE,12,11.0,15.0,93,0.00,,,0.74,meteohub,2013-04-10 01:33:00,
2013-04-09 20:38:00,36.7,34.9,30.08,NNE,12,10.0,17.0,93,0.00,,,0.74,meteohub,2013-04-10 01:38:00,
2013-04-09 20:43:00,36.7,34.9,30.08,NE,35,15.0,17.0,93,0.00,,,0.74,meteohub,2013-04-10 01:43:00,
2013-04-09 20:49:00,36.3,34.5,30.08,NNE,15,15.0,18.0,93,0.00,,,0.74,meteohub,2013-04-10 01:49:00,
2013-04-09 20:54:00,36.3,34.5,30.08,NNE,17,10.0,18.0,93,0.00,,,0.74,meteohub,2013-04-10 01:54:00,
2013-04-09 20:59:00,36.1,34.3,30.08,NNE,24,10.0,19.0,93,0.00,,,0.74,meteohub,2013-04-10 01:59:00,
2013-04-09 21:05:00,36.1,34.3,30.08,NNE,23,7.0,20.0,93,0.00,,,0.74,meteohub,2013-04-10 02:05:00,
2013-04-09 21:10:00,36.0,34.2,30.08,NNE,15,16.0,20.0,93,0.00,,,0.74,meteohub,2013-04-10 02:10:00,
2013-04-09 21:15:00,36.0,34.2,30.07,NNE,19,12.0,21.0,93,0.00,,,0.74,meteohub,2013-04-10 02:15:00,
2013-04-09 21:20:00,36.0,34.2,30.08,NNE,19,17.0,21.0,93,0.00,,,0.74,meteohub,2013-04-10 02:20:00,
2013-04-09 21:26:00,35.8,34.0,30.08,NNE,32,14.0,21.0,93,0.00,,,0.74,meteohub,2013-04-10 02:26:00,
2013-04-09 21:31:00,35.8,34.0,30.08,NE,38,17.0,19.0,93,0.00,,,0.74,meteohub,2013-04-10 02:31:00,
2013-04-09 21:37:00,35.8,34.0,30.08,NE,36,12.0,20.0,93,0.00,,,0.74,meteohub,2013-04-10 02:37:00,
2013-04-09 21:42:00,35.8,34.0,30.08,NNE,28,12.0,20.0,93,0.00,,,0.74,meteohub,2013-04-10 02:42:00,
2013-04-09 21:47:00,35.8,34.0,30.09,NNE,24,10.0,18.0,93,0.00,,,0.74,meteohub,2013-04-10 02:47:00,
2013-04-09 21:52:00,35.8,34.0,30.08,NE,39,11.0,17.0,93,0.00,,,0.74,meteohub,2013-04-10 02:52:00,
2013-04-09 21:57:00,35.6,33.8,30.07,NE,36,9.0,17.0,93,0.00,,,0.74,meteohub,2013-04-10 02:57:00,
2013-04-09 22:02:00,35.6,33.8,30.07,NNE,33,11.0,18.0,93,0.00,,,0.74,meteohub,2013-04-10 03:02:00,
2013-04-09 22:07:00,35.6,33.8,30.08,NE,34,11.0,18.0,93,0.00,,,0.74,meteohub,2013-04-10 03:07:00,
2013-04-09 22:12:00,35.4,33.6,30.07,NNE,19,10.0,19.0,93,0.00,,,0.74,meteohub,2013-04-10 03:12:00,
2013-04-09 22:17:00,35.4,33.6,30.07,NNE,19,19.0,19.0,93,0.00,,,0.74,meteohub,2013-04-10 03:17:00,
2013-04-09 22:23:00,35.2,33.1,30.07,NNE,31,19.0,21.0,92,0.00,,,0.74,meteohub,2013-04-10 03:23:00,
2013-04-09 22:28:00,35.2,33.1,30.07,ENE,58,13.0,21.0,92,0.00,,,0.74,meteohub,2013-04-10 03:28:00,
2013-04-09 22:33:00,35.2,33.1,30.06,NE,36,13.0,21.0,92,0.00,,,0.74,meteohub,2013-04-10 03:33:00,
2013-04-09 22:38:00,35.1,32.9,30.05,NE,34,16.0,21.0,92,0.00,,,0.74,meteohub,2013-04-10 03:38:00,
2013-04-09 22:43:00,35.1,32.9,30.05,NE,34,11.0,21.0,92,0.00,,,0.74,meteohub,2013-04-10 03:43:00,
2013-04-09 22:48:00,34.9,32.7,30.06,NNE,24,11.0,21.0,92,0.00,,,0.74,meteohub,2013-04-10 03:48:00,
2013-04-09 22:54:00,34.9,32.7,30.06,NNE,17,8.0,21.0,92,0.00,,,0.74,meteohub,2013-04-10 03:54:00,
2013-04-09 22:59:00,34.9,32.7,30.06,NE,42,11.0,20.0,92,0.00,,,0.74,meteohub,2013-04-10 03:59:00,
2013-04-09 23:00:00,34.9,32.7,30.06,NE,45,15.0,19.0,92,0.00,,,0.74,meteohub,2013-04-10 04:00:00,
2013-04-09 23:02:00,34.7,32.5,30.06,NE,45,13.0,19.0,92,0.00,,,0.74,meteohub,2013-04-10 04:02:00,
2013-04-09 23:07:00,34.9,32.7,30.05,NE,40,14.0,19.0,92,0.00,,,0.74,meteohub,2013-04-10 04:07:00,
2013-04-09 23:13:00,34.7,32.5,30.06,NNE,29,9.0,19.0,92,0.00,,,0.74,meteohub,2013-04-10 04:13:00,
2013-04-09 23:18:00,34.7,32.4,30.06,NNE,33,14.0,19.0,91,0.00,,,0.74,meteohub,2013-04-10 04:18:00,
2013-04-09 23:23:00,34.5,32.2,30.06,NE,36,12.0,19.0,91,0.00,,,0.74,meteohub,2013-04-10 04:23:00,
2013-04-09 23:28:00,34.5,32.2,30.06,NE,45,9.0,17.0,91,0.00,,,0.74,meteohub,2013-04-10 04:28:00,
2013-04-09 23:33:00,34.5,32.2,30.05,NE,51,7.0,17.0,91,0.00,,,0.74,meteohub,2013-04-10 04:33:00,
2013-04-09 23:39:00,34.3,32.0,30.03,NE,41,14.0,20.0,91,0.00,,,0.74,meteohub,2013-04-10 04:39:00,
2013-04-09 23:44:00,34.3,32.0,30.04,NE,41,9.0,20.0,91,0.00,,,0.74,meteohub,2013-04-10 04:44:00,
2013-04-09 23:49:00,34.2,32.0,30.05,NNE,32,9.0,20.0,92,0.00,,,0.74,meteohub,2013-04-10 04:49:00,
2013-04-09 23:55:00,34.2,32.0,30.05,NE,40,9.0,20.0,92,0.01,,,0.75,meteohub,2013-04-10 04:55:00,